Time;durP1;ratioP1;P1;durP2;ratioP2;P2;SDS_P1;SDS_P2;PMS_P1;PMS_P2;Temp;Humidity;BMP_temperature;BMP_pressure;BME280_temperature;BME280_humidity;BME280_pressure;Samples;Min_cycle;Max_cycle;Signal;HPM_P1;HPM_P2
2023/09/19 00:00:20;;;;;;;0.90;0.40;;;;;;;-143.84;72.63;45089.06;5089230;28;20513;-59
2023/09/19 00:02:48;;;;;;;0.90;0.40;;;;;;;-143.84;72.62;45071.91;5089203;28;20988;-60
2023/09/19 00:05:15;;;;;;;0.90;0.40;;;;;;;-143.84;72.72;45087.16;5089116;28;20578;-59
2023/09/19 00:07:42;;;;;;;0.90;0.40;;;;;;;-143.84;72.67;45092.88;5088804;28;20436;-59
2023/09/19 00:10:11;;;;;;;0.90;0.40;;;;;;;-143.84;72.44;45079.53;5089053;28;20448;-59
2023/09/19 00:12:38;;;;;;;0.90;0.40;;;;;;;-143.84;72.42;45098.56;5093442;28;20455;-59
2023/09/19 00:15:09;;;;;;;0.90;0.40;;;;;;;-143.84;72.22;45089.06;5094493;28;20455;-59
2023/09/19 00:17:37;;;;;;;0.90;0.40;;;;;;;-143.84;71.97;45077.63;5094364;28;21288;-59
2023/09/19 00:20:08;;;;;;;0.90;0.40;;;;;;;-143.84;72.11;45083.34;5096748;28;20937;-59
2023/09/19 00:22:36;;;;;;;0.90;0.40;;;;;;;-143.84;72.15;45104.28;5092469;28;20440;-59
2023/09/19 00:25:03;;;;;;;0.90;0.40;;;;;;;-143.84;72.07;45089.06;5093847;28;20996;-60
2023/09/19 00:27:33;;;;;;;0.90;0.40;;;;;;;-143.84;71.95;45090.97;5090126;28;20432;-59
2023/09/19 00:30:00;;;;;;;0.90;0.40;;;;;;;-143.84;72.08;45083.34;5088499;28;20462;-59
2023/09/19 00:32:31;;;;;;;0.90;0.40;;;;;;;-143.84;72.16;45089.06;5090921;28;20435;-59
2023/09/19 00:34:58;;;;;;;0.90;0.40;;;;;;;-143.84;72.26;45100.47;5088452;28;20456;-60
2023/09/19 00:37:25;;;;;;;0.90;0.40;;;;;;;-143.84;72.31;45096.66;5091178;28;20492;-59
2023/09/19 00:39:52;;;;;;;0.90;0.40;;;;;;;-143.84;72.22;45075.72;5091647;28;20452;-59
2023/09/19 00:42:23;;;;;;;0.90;0.40;;;;;;;-143.84;72.47;45079.53;5093241;28;20503;-59
2023/09/19 00:44:51;;;;;;;0.90;0.40;;;;;;;-143.84;72.71;45075.72;5087796;28;21097;-59
2023/09/19 00:47:18;;;;;;;0.90;0.50;;;;;;;-143.84;72.64;45079.53;5089636;28;20508;-59
2023/09/19 00:49:50;;;;;;;0.90;0.37;;;;;;;-143.84;72.77;45087.16;5088663;28;20541;-59
2023/09/19 00:52:19;;;;;;;0.90;0.40;;;;;;;-143.84;72.73;45062.41;5088946;28;20494;-59
2023/09/19 00:54:47;;;;;;;0.90;0.40;;;;;;;-143.84;73.00;45081.44;5090850;28;20451;-60
2023/09/19 00:57:15;;;;;;;0.90;0.40;;;;;;;-143.84;73.20;45070.00;5089117;28;20505;-59
2023/09/19 00:59:43;;;;;;;0.90;0.40;;;;;;;-143.84;73.22;45085.25;5088955;28;20459;-59
2023/09/19 01:02:10;;;;;;;0.90;0.40;;;;;;;-143.84;73.39;45094.78;5089210;28;20439;-59
2023/09/19 01:04:38;;;;;;;0.90;0.40;;;;;;;-143.84;73.59;45077.63;5088806;28;20447;-59
2023/09/19 01:07:08;;;;;;;0.90;0.40;;;;;;;-143.84;73.84;45071.91;5087670;28;20455;-60
2023/09/19 01:09:35;;;;;;;0.90;0.30;;;;;;;-143.84;73.74;45083.34;5087688;28;20452;-59
2023/09/19 01:12:06;;;;;;;0.90;0.40;;;;;;;-143.84;73.82;45165.22;5087703;28;20505;-59
2023/09/19 01:14:43;;;;;;;0.90;0.40;;;;;;;-143.84;73.57;45081.44;5086380;28;21019;-59
2023/09/19 01:17:22;;;;;;;0.90;0.40;;;;;;;-143.84;73.24;45077.63;5087444;28;20524;-59
2023/09/19 01:20:24;;;;;;;0.90;0.30;;;;;;;-143.84;73.21;45073.81;5086975;28;20471;-59
2023/09/19 01:23:06;;;;;;;0.90;0.40;;;;;;;-143.84;73.20;45096.66;5087040;28;20463;-59
2023/09/19 01:26:08;;;;;;;0.90;0.40;;;;;;;-143.84;73.30;45075.72;5087367;28;20548;-59
2023/09/19 01:28:47;;;;;;;0.90;0.40;;;;;;;-143.84;72.92;45081.44;5091127;28;20439;-59
2023/09/19 01:31:16;;;;;;;0.90;0.40;;;;;;;-143.84;72.85;45075.72;5092401;28;20508;-59
2023/09/19 01:33:59;;;;;;;0.90;0.40;;;;;;;-143.84;72.94;45071.91;5094418;28;20455;-59
2023/09/19 01:36:28;;;;;;;0.90;0.40;;;;;;;-143.84;73.33;45094.78;5094566;28;20451;-60
2023/09/19 01:38:58;;;;;;;0.90;0.40;;;;;;;-143.84;73.37;45117.63;5094358;28;20867;-59
2023/09/19 01:41:39;;;;;;;0.90;0.40;;;;;;;-143.84;73.53;45075.72;5094713;28;20988;-59
2023/09/19 01:44:10;;;;;;;0.90;0.40;;;;;;;-143.84;73.83;45098.56;5104574;28;20455;-59
2023/09/19 01:46:42;;;;;;;0.90;0.40;;;;;;;-143.84;74.28;45085.25;5104732;28;20531;-59
2023/09/19 01:49:23;;;;;;;0.90;0.40;;;;;;;-143.84;74.60;45090.97;5098431;28;20493;-59
2023/09/19 01:51:57;;;;;;;0.90;0.43;;;;;;;-143.84;74.66;45098.56;5093290;28;20470;-59
2023/09/19 01:54:31;;;;;;;1.60;1.07;;;;;;;-143.84;74.78;45079.53;5096231;28;20441;-59
2023/09/19 01:57:03;;;;;;;0.90;0.40;;;;;;;-143.84;74.70;45094.78;5094216;28;20452;-59
2023/09/19 01:59:40;;;;;;;0.90;0.40;;;;;;;-143.84;74.73;45096.66;5103642;28;20541;-59
2023/09/19 02:02:10;;;;;;;0.90;0.40;;;;;;;-143.84;74.87;45089.06;5097837;28;20880;-59
2023/09/19 02:04:37;;;;;;;0.90;0.30;;;;;;;-143.84;74.81;45075.72;5102873;28;20439;-60
2023/09/19 02:07:08;;;;;;;0.90;0.40;;;;;;;-143.84;75.01;45098.56;5098197;28;20490;-59
2023/09/19 02:09:38;;;;;;;0.90;0.40;;;;;;;-143.84;75.00;45113.81;5095037;28;20468;-60
2023/09/19 02:12:07;;;;;;;0.90;0.40;;;;;;;-143.84;74.81;45087.16;5092917;28;20547;-59
2023/09/19 02:14:35;;;;;;;0.90;0.40;;;;;;;-143.84;74.78;45094.78;5096980;28;20447;-59
2023/09/19 02:17:05;;;;;;;0.90;0.40;;;;;;;-143.84;74.82;45104.28;5096477;28;20458;-60
2023/09/19 02:19:34;;;;;;;0.90;0.40;;;;;;;-143.84;74.62;45089.06;5093660;28;20475;-59
2023/09/19 02:22:03;;;;;;;0.90;0.30;;;;;;;-143.84;74.50;45071.91;5097293;28;20508;-59
2023/09/19 02:24:31;;;;;;;0.90;0.40;;;;;;;-143.84;74.42;45090.97;5098512;28;20444;-59
2023/09/19 02:26:59;;;;;;;0.90;0.40;;;;;;;-143.84;74.24;45102.38;5095729;28;20551;-59
2023/09/19 02:29:26;;;;;;;0.90;0.40;;;;;;;-143.84;73.96;45092.88;5095162;28;20510;-59
2023/09/19 02:31:55;;;;;;;0.90;0.40;;;;;;;-143.84;73.84;45085.25;5093863;28;21309;-59
2023/09/19 02:34:23;;;;;;;0.90;0.40;;;;;;;-143.84;73.75;45110.00;5095035;28;20467;-59
2023/09/19 02:36:53;;;;;;;0.80;0.30;;;;;;;-143.84;73.82;45117.63;5094276;28;21029;-59
2023/09/19 02:39:20;;;;;;;0.90;0.40;;;;;;;-143.84;73.87;45075.72;5093198;28;20521;-59
2023/09/19 02:41:48;;;;;;;0.90;0.40;;;;;;;-143.84;73.87;45066.22;5092241;28;20456;-59
2023/09/19 02:44:15;;;;;;;0.90;0.40;;;;;;;-143.84;74.10;45090.97;5092206;28;20455;-59
2023/09/19 02:46:42;;;;;;;0.80;0.30;;;;;;;-143.84;74.27;45104.28;5094956;28;20486;-59
2023/09/19 02:49:09;;;;;;;0.90;0.40;;;;;;;-143.84;74.60;45104.28;5091551;28;21181;-59
2023/09/19 02:51:37;;;;;;;0.90;0.40;;;;;;;-143.84;74.64;45094.78;5090919;28;20448;-59
2023/09/19 02:54:06;;;;;;;0.90;0.40;;;;;;;-143.84;74.72;45102.38;5091743;28;20451;-60
2023/09/19 02:56:33;;;;;;;0.87;0.40;;;;;;;-143.84;74.66;45073.81;5098617;28;20459;-60
2023/09/19 02:59:01;;;;;;;0.90;0.40;;;;;;;-143.84;74.76;45104.28;5090342;28;20466;-59
2023/09/19 03:01:29;;;;;;;0.90;0.40;;;;;;;-143.84;74.72;45092.88;5090180;28;20941;-59
2023/09/19 03:03:56;;;;;;;0.90;0.80;;;;;;;-143.84;74.67;45102.38;5095853;28;20445;-59
2023/09/19 03:06:23;;;;;;;0.90;0.40;;;;;;;-143.84;74.59;45089.06;5101149;28;20486;-59
2023/09/19 03:08:51;;;;;;;0.90;0.40;;;;;;;-143.84;74.53;45073.81;5099777;28;20529;-59
2023/09/19 03:11:22;;;;;;;0.90;0.40;;;;;;;-143.84;74.61;45104.28;5098459;28;20451;-60
2023/09/19 03:13:53;;;;;;;0.80;0.30;;;;;;;-143.84;74.75;45087.16;5100732;28;20479;-59
2023/09/19 03:16:21;;;;;;;0.90;0.40;;;;;;;-143.84;74.61;45170.94;5099819;28;20454;-59
2023/09/19 03:18:49;;;;;;;0.90;0.40;;;;;;;-143.84;74.49;45098.56;5098070;28;20482;-59
2023/09/19 03:21:16;;;;;;;0.90;0.40;;;;;;;-143.84;74.33;45083.34;5090255;28;20545;-59
2023/09/19 03:23:45;;;;;;;0.87;0.40;;;;;;;-143.84;74.41;45089.06;5091199;28;20889;-60
2023/09/19 03:26:15;;;;;;;0.90;0.40;;;;;;;-143.84;74.44;45113.81;5082930;28;20978;-62
2023/09/19 03:28:45;;;;;;;0.90;0.40;;;;;;;-143.84;74.77;45094.78;5090677;28;20535;-62
2023/09/19 03:31:13;;;;;;;0.90;0.40;;;;;;;-143.84;75.04;45102.38;5089143;28;20543;-62
2023/09/19 03:33:40;;;;;;;0.90;0.40;;;;;;;-143.84;75.34;45090.97;5091665;28;20448;-62
2023/09/19 03:36:07;;;;;;;0.90;0.40;;;;;;;-143.84;75.40;45106.19;5090387;28;20455;-62
2023/09/19 03:38:35;;;;;;;0.90;0.40;;;;;;;-143.84;75.54;45071.91;5096503;28;20431;-62
2023/09/19 03:41:02;;;;;;;0.90;0.40;;;;;;;-143.84;75.67;45096.66;5088578;28;20478;-62
2023/09/19 03:43:29;;;;;;;0.87;0.50;;;;;;;-143.84;75.67;45100.47;5093846;28;20443;-63
2023/09/19 03:46:02;;;;;;;0.90;0.40;;;;;;;-143.84;75.52;45104.28;5097299;28;20478;-62
2023/09/19 03:48:30;;;;;;;0.90;0.40;;;;;;;-143.84;75.61;45119.53;5091992;28;20452;-62
2023/09/19 03:50:57;;;;;;;0.83;0.40;;;;;;;-143.84;75.59;45098.56;5095283;28;20956;-62
2023/09/19 03:53:24;;;;;;;0.90;0.40;;;;;;;-143.84;75.72;45058.59;5088161;28;20448;-63
2023/09/19 03:55:51;;;;;;;0.90;0.40;;;;;;;-143.84;76.01;45083.34;5088676;28;20452;-63
2023/09/19 03:58:19;;;;;;;0.90;0.40;;;;;;;-143.84;75.95;45102.38;5089137;28;20455;-62
2023/09/19 04:00:46;;;;;;;0.90;0.40;;;;;;;-143.84;75.98;45106.19;5089945;28;20937;-63
2023/09/19 04:03:19;;;;;;;0.90;0.40;;;;;;;-143.84;76.10;45092.88;5089084;28;20531;-63
2023/09/19 04:05:47;;;;;;;0.90;0.40;;;;;;;-143.84;76.15;45102.38;5089621;28;20487;-62
2023/09/19 04:08:15;;;;;;;0.80;0.40;;;;;;;-143.84;76.24;45104.28;5089722;28;20522;-62
2023/09/19 04:10:45;;;;;;;0.90;0.40;;;;;;;-143.84;76.21;45100.47;5091920;28;20505;-62
2023/09/19 04:13:12;;;;;;;0.80;0.40;;;;;;;-143.84;75.91;45081.44;5091640;28;20444;-62
2023/09/19 04:15:40;;;;;;;0.90;0.40;;;;;;;-143.84;75.92;45089.06;5091454;28;20572;-62
2023/09/19 04:18:07;;;;;;;0.90;0.40;;;;;;;-143.84;75.86;45090.97;5086967;28;20488;-62
2023/09/19 04:20:36;;;;;;;0.90;0.40;;;;;;;-143.84;76.00;45077.63;5090228;28;20440;-62
2023/09/19 04:23:04;;;;;;;0.90;0.40;;;;;;;-143.84;76.07;45089.06;5088587;28;20451;-62
2023/09/19 04:25:31;;;;;;;1.87;0.60;;;;;;;-143.84;76.02;45077.63;5089066;28;21078;-62
2023/09/19 04:27:59;;;;;;;0.90;0.40;;;;;;;-143.84;76.32;45106.19;5088516;28;20448;-62
2023/09/19 04:30:26;;;;;;;0.80;0.40;;;;;;;-143.84;76.20;45110.00;5094558;28;20447;-63
2023/09/19 04:32:53;;;;;;;0.80;0.40;;;;;;;-143.84;76.09;45121.44;5104086;28;20443;-63
2023/09/19 04:35:21;;;;;;;0.90;0.40;;;;;;;-143.84;75.92;45108.09;5107175;28;20515;-63
2023/09/19 04:37:49;;;;;;;0.90;0.40;;;;;;;-143.84;75.92;45119.53;5105127;28;20435;-61
2023/09/19 04:40:17;;;;;;;0.80;0.40;;;;;;;-143.84;75.73;45102.38;5099438;28;20451;-61
2023/09/19 04:42:45;;;;;;;0.90;0.40;;;;;;;-143.84;75.48;45079.53;5102356;28;20451;-61
2023/09/19 04:45:13;;;;;;;0.80;0.40;;;;;;;-143.84;75.43;45106.19;5085625;28;20448;-61
2023/09/19 04:47:40;;;;;;;0.90;0.40;;;;;;;-143.84;75.35;45090.97;5088161;28;20484;-61
2023/09/19 04:50:11;;;;;;;0.90;0.40;;;;;;;-143.84;76.04;45104.28;5104285;28;20961;-61
2023/09/19 04:52:41;;;;;;;0.90;0.40;;;;;;;-143.84;74.55;45071.91;5089190;28;20448;-61
2023/09/19 04:55:13;;;;;;;0.90;0.40;;;;;;;-143.84;72.05;45090.97;5096610;28;20443;-61
2023/09/19 04:57:40;;;;;;;0.90;0.40;;;;;;;-143.84;69.54;45049.06;5091629;28;20448;-61
2023/09/19 05:00:12;;;;;;;0.90;0.30;;;;;;;-143.84;66.73;45070.00;5097285;28;20452;-61
2023/09/19 05:02:40;;;;;;;0.90;0.30;;;;;;;-143.84;64.59;45071.91;5100351;28;20461;-61
2023/09/19 05:05:09;;;;;;;0.90;0.30;;;;;;;-143.84;62.03;45073.81;5095462;28;20945;-61
2023/09/19 05:07:36;;;;;;;0.90;0.40;;;;;;;-143.84;60.00;45030.03;5095246;28;20487;-61
2023/09/19 05:10:06;;;;;;;0.90;0.30;;;;;;;-143.84;58.93;45039.53;5095251;28;20444;-61
2023/09/19 05:12:35;;;;;;;0.90;0.40;;;;;;;-143.84;57.48;45060.50;5093258;28;20452;-61
2023/09/19 05:15:03;;;;;;;0.90;0.30;;;;;;;-143.84;55.71;45024.31;5096979;28;20548;-61
2023/09/19 05:17:31;;;;;;;0.90;0.40;;;;;;;-143.84;54.67;45049.06;5094298;28;20450;-61
2023/09/19 05:20:00;;;;;;;0.90;0.40;;;;;;;-143.84;52.41;45026.22;5088622;28;20861;-61
2023/09/19 05:22:28;;;;;;;0.90;0.30;;;;;;;-143.84;51.56;45033.84;5086529;28;20916;-61
2023/09/19 05:24:55;;;;;;;0.90;0.30;;;;;;;-143.84;51.19;45026.22;5088684;28;20445;-61
2023/09/19 05:27:23;;;;;;;0.90;0.30;;;;;;;-143.84;49.84;45007.19;5088754;28;20879;-61
2023/09/19 05:29:52;;;;;;;0.90;0.30;;;;;;;-143.84;49.12;45024.31;5088258;28;21313;-61
2023/09/19 05:32:20;;;;;;;0.90;0.30;;;;;;;-143.84;47.61;45033.84;5087984;28;20517;-61
2023/09/19 05:34:48;;;;;;;0.80;0.30;;;;;;;-143.84;47.34;45007.19;5090007;28;20560;-60
2023/09/19 05:37:16;;;;;;;0.90;0.40;;;;;;;-143.84;46.70;45020.50;5089909;28;20612;-60
2023/09/19 05:39:43;;;;;;;0.80;0.30;;;;;;;-143.84;45.85;44997.66;5087369;28;20471;-60
2023/09/19 05:42:11;;;;;;;0.80;0.30;;;;;;;-143.84;45.22;44991.94;5084079;28;20579;-60
2023/09/19 05:44:38;;;;;;;0.80;0.30;;;;;;;-143.84;45.45;45020.50;5087816;28;20443;-60
2023/09/19 05:47:08;;;;;;;0.80;0.30;;;;;;;-143.84;45.35;45007.19;5087371;28;20855;-60
2023/09/19 05:49:37;;;;;;;0.80;0.30;;;;;;;-143.84;44.30;45012.88;5101008;28;20517;-60
2023/09/19 05:52:06;;;;;;;0.80;0.40;;;;;;;-143.84;43.42;45005.28;5099555;28;20527;-60
2023/09/19 05:54:34;;;;;;;0.80;0.30;;;;;;;-143.84;43.52;44988.13;5094371;28;20443;-60
2023/09/19 05:57:01;;;;;;;0.80;0.30;;;;;;;-143.84;43.16;44959.56;5103630;28;20459;-60
2023/09/19 05:59:28;;;;;;;0.80;0.30;;;;;;;-143.84;43.02;45003.38;5102697;28;21082;-60
2023/09/19 06:01:56;;;;;;;0.80;0.30;;;;;;;-143.84;42.09;44986.22;5096570;28;20454;-60
2023/09/19 06:04:25;;;;;;;0.80;0.30;;;;;;;-143.84;42.14;44978.63;5099455;28;20538;-60
2023/09/19 06:06:52;;;;;;;0.80;0.30;;;;;;;-143.84;42.19;44976.72;5102036;28;20498;-60
2023/09/19 06:09:23;;;;;;;0.80;0.30;;;;;;;-143.84;42.11;44976.72;5096015;28;20448;-60
2023/09/19 06:11:51;;;;;;;0.80;0.30;;;;;;;-143.84;42.12;44972.91;5085615;28;21207;-60
2023/09/19 06:14:19;;;;;;;0.80;0.30;;;;;;;-143.84;42.07;44978.63;5091533;28;20493;-60
2023/09/19 06:16:47;;;;;;;0.80;0.43;;;;;;;-143.84;41.31;44995.75;5101259;28;20468;-60
2023/09/19 06:19:14;;;;;;;0.80;0.30;;;;;;;-143.84;41.56;44969.09;5097037;28;20570;-60
2023/09/19 06:21:44;;;;;;;0.80;0.30;;;;;;;-143.84;41.24;44978.63;5101150;28;20439;-60
2023/09/19 06:24:11;;;;;;;0.80;0.30;;;;;;;-143.84;40.68;44969.09;5102958;28;20455;-60
2023/09/19 06:26:38;;;;;;;0.80;0.40;;;;;;;-143.84;41.14;44948.16;5098818;28;20483;-60
2023/09/19 06:29:07;;;;;;;0.80;0.30;;;;;;;-143.84;40.27;44959.56;5090295;28;20493;-61
2023/09/19 06:31:34;;;;;;;0.80;0.30;;;;;;;-143.84;40.64;44978.63;5091301;28;21033;-60
2023/09/19 06:34:03;;;;;;;0.80;0.30;;;;;;;-143.84;41.18;44971.00;5092376;28;20451;-61
2023/09/19 06:36:30;;;;;;;0.80;0.30;;;;;;;-143.84;40.01;44976.72;5089870;28;20522;-60
2023/09/19 06:38:59;;;;;;;0.80;0.30;;;;;;;-143.84;40.08;44938.63;5090574;28;21228;-61
2023/09/19 06:41:26;;;;;;;0.80;0.30;;;;;;;-143.84;40.20;44963.38;5091172;28;20658;-60
2023/09/19 06:43:54;;;;;;;0.80;0.30;;;;;;;-143.84;39.76;44967.19;5090518;28;20454;-60
2023/09/19 06:46:21;;;;;;;0.80;0.30;;;;;;;-143.84;39.87;44969.09;5091133;28;20524;-61
2023/09/19 06:48:49;;;;;;;0.80;0.30;;;;;;;-143.84;40.55;44980.53;5090340;28;20501;-60
2023/09/19 06:51:16;;;;;;;0.80;0.30;;;;;;;-143.84;40.12;44961.47;5091344;28;20467;-60
2023/09/19 06:53:44;;;;;;;0.80;0.30;;;;;;;-143.84;40.03;44976.72;5090998;28;20465;-61
2023/09/19 06:56:12;;;;;;;0.80;0.30;;;;;;;-143.84;40.20;44969.09;5091855;28;20436;-61
2023/09/19 06:58:39;;;;;;;0.80;0.30;;;;;;;-143.84;39.67;44934.81;5090337;28;20675;-61
2023/09/19 07:01:06;;;;;;;0.80;0.30;;;;;;;-143.84;39.83;44940.53;5091047;28;20452;-61
2023/09/19 07:03:34;;;;;;;0.80;0.30;;;;;;;-143.84;39.32;44953.88;5090825;28;20454;-61
2023/09/19 07:06:02;;;;;;;0.80;0.40;;;;;;;-143.84;39.24;44967.19;5090124;28;20535;-61
2023/09/19 07:08:29;;;;;;;0.80;0.37;;;;;;;-143.84;39.17;44953.88;5090005;28;20525;-61
2023/09/19 07:10:58;;;;;;;0.80;0.30;;;;;;;-143.84;39.43;44948.16;5090428;28;20436;-61
2023/09/19 07:13:26;;;;;;;0.80;0.30;;;;;;;-143.84;39.78;44950.06;5090054;28;20459;-61
2023/09/19 07:15:54;;;;;;;0.80;0.30;;;;;;;-143.84;38.75;44948.16;5094297;28;20512;-61
2023/09/19 07:18:21;;;;;;;0.80;0.30;;;;;;;-143.84;39.12;44950.06;5093136;28;21389;-61
2023/09/19 07:20:49;;;;;;;0.80;0.30;;;;;;;-143.84;38.83;44940.53;5087018;28;20515;-61
2023/09/19 07:23:17;;;;;;;0.80;0.30;;;;;;;-143.84;38.63;44959.56;5089859;28;20843;-61
2023/09/19 07:25:46;;;;;;;0.80;0.30;;;;;;;-143.84;38.15;44948.16;5106168;28;20443;-61
2023/09/19 07:28:13;;;;;;;0.80;0.30;;;;;;;-143.84;38.04;44927.19;5093684;28;20479;-61
2023/09/19 07:30:42;;;;;;;0.80;0.40;;;;;;;-143.84;37.35;44953.88;5098461;28;20443;-61
2023/09/19 07:33:11;;;;;;;0.80;0.40;;;;;;;-143.84;38.07;44934.81;5104313;28;20465;-61
2023/09/19 07:35:40;;;;;;;0.80;0.30;;;;;;;-143.84;37.82;44946.25;5103697;28;20439;-61
2023/09/19 07:38:07;;;;;;;0.80;0.30;;;;;;;-143.84;38.20;44919.59;5097223;28;20470;-61
2023/09/19 07:40:34;;;;;;;0.80;0.30;;;;;;;-143.84;37.70;44951.97;5099243;28;20461;-61
2023/09/19 07:43:03;;;;;;;0.80;0.30;;;;;;;-143.84;37.88;44944.34;5097449;28;20439;-61
2023/09/19 07:45:31;;;;;;;0.80;0.30;;;;;;;-143.84;37.75;44938.63;5099191;28;20439;-61
2023/09/19 07:48:01;;;;;;;0.90;0.60;;;;;;;-143.84;38.14;44929.09;5089224;28;20570;-61
2023/09/19 07:50:28;;;;;;;0.80;0.30;;;;;;;-143.84;38.38;44942.44;5087844;28;20452;-61
2023/09/19 07:52:56;;;;;;;0.80;0.30;;;;;;;-143.84;37.70;44967.19;5089497;28;20444;-61
2023/09/19 07:55:25;;;;;;;0.80;0.30;;;;;;;-143.84;37.40;44959.56;5089825;28;20991;-61
2023/09/19 07:57:52;;;;;;;0.80;0.40;;;;;;;-143.84;38.14;44946.25;5089223;28;20593;-61
2023/09/19 08:00:19;;;;;;;0.80;0.30;;;;;;;-143.84;38.18;44955.75;5090318;28;20467;-61
2023/09/19 08:02:47;;;;;;;0.80;0.30;;;;;;;-143.84;38.25;44927.19;5094311;28;20444;-61
2023/09/19 08:05:16;;;;;;;0.80;0.30;;;;;;;-143.84;37.45;44957.66;5096742;28;20452;-61
2023/09/19 08:07:45;;;;;;;0.80;0.30;;;;;;;-143.84;36.93;44932.91;5095350;28;20484;-61
2023/09/19 08:10:13;;;;;;;0.80;0.30;;;;;;;-143.84;36.86;44934.81;5095967;28;20530;-61
2023/09/19 08:12:46;;;;;;;0.80;0.30;;;;;;;-143.84;37.01;44942.44;5088375;28;20448;-61
2023/09/19 08:15:14;;;;;;;0.80;0.30;;;;;;;-143.84;37.30;44932.91;5089305;28;20459;-61
2023/09/19 08:17:41;;;;;;;0.80;0.30;;;;;;;-143.84;36.98;44942.44;5088814;28;20460;-61
2023/09/19 08:20:15;;;;;;;0.80;0.30;;;;;;;-143.84;36.04;44932.91;5089824;28;21867;-62
2023/09/19 08:22:47;;;;;;;0.80;0.30;;;;;;;-143.84;35.59;44940.53;5089983;28;20454;-62
2023/09/19 08:25:17;;;;;;;0.80;0.30;;;;;;;-143.84;36.22;44944.34;5093536;28;20456;-62
2023/09/19 08:27:47;;;;;;;0.80;0.30;;;;;;;-143.84;36.22;44940.53;5091431;28;20996;-61
2023/09/19 08:30:15;;;;;;;0.80;0.30;;;;;;;-143.84;35.89;44931.00;5088883;28;20517;-61
2023/09/19 08:32:43;;;;;;;0.80;0.30;;;;;;;-143.84;37.00;44917.69;5088319;28;20446;-62
2023/09/19 08:35:11;;;;;;;0.80;0.40;;;;;;;-143.84;36.17;44938.63;5087745;28;20439;-61
2023/09/19 08:37:38;;;;;;;0.80;0.30;;;;;;;-143.84;36.20;44913.88;5088495;28;20456;-61
2023/09/19 08:40:09;;;;;;;1.10;0.50;;;;;;;-143.84;36.37;44934.81;5099847;28;20454;-61
2023/09/19 08:42:50;;;;;;;0.80;0.30;;;;;;;-143.84;35.95;44921.50;5104212;28;20450;-62
2023/09/19 08:45:18;;;;;;;0.80;0.30;;;;;;;-143.84;35.76;44923.41;5100235;28;20509;-61
2023/09/19 08:47:51;;;;;;;1.07;0.70;;;;;;;-143.84;35.81;44908.16;5101365;28;21016;-61
2023/09/19 08:50:28;;;;;;;0.80;0.30;;;;;;;-143.84;34.79;44946.25;5095592;28;20444;-61
2023/09/19 08:52:57;;;;;;;0.80;0.30;;;;;;;-143.84;35.27;44946.25;5095821;28;20521;-62
2023/09/19 08:55:29;;;;;;;0.80;0.30;;;;;;;-143.84;34.47;44911.97;5095833;28;20455;-62
2023/09/19 08:58:01;;;;;;;0.80;0.30;;;;;;;-143.84;36.03;44887.22;5098290;28;21017;-61
2023/09/19 09:00:29;;;;;;;0.80;0.30;;;;;;;-143.84;35.16;44951.97;5098005;28;20443;-61
2023/09/19 09:02:58;;;;;;;0.80;0.30;;;;;;;-143.84;34.80;44904.34;5097212;28;21041;-61
2023/09/19 09:05:26;;;;;;;0.80;0.30;;;;;;;-143.84;35.05;44915.78;5090167;28;20809;-61
2023/09/19 09:07:56;;;;;;;0.80;0.30;;;;;;;-143.84;35.28;44896.75;5088951;28;20480;-61
2023/09/19 09:10:23;;;;;;;0.80;0.30;;;;;;;-143.84;34.49;44868.19;5087854;28;20443;-61
2023/09/19 09:12:53;;;;;;;0.80;0.30;;;;;;;-143.84;34.72;44929.09;5095733;28;20448;-61
2023/09/19 09:15:23;;;;;;;0.80;0.30;;;;;;;-143.84;34.02;44915.78;5087575;28;20460;-61
2023/09/19 09:17:50;;;;;;;0.80;0.30;;;;;;;-143.84;34.34;44910.06;5087934;28;20486;-61
2023/09/19 09:20:18;;;;;;;0.80;0.30;;;;;;;-143.84;35.15;44915.78;5092369;28;20530;-61
2023/09/19 09:22:53;;;;;;;0.80;0.30;;;;;;;-143.84;34.46;44923.41;5091847;28;20505;-61
2023/09/19 09:25:23;;;;;;;0.80;0.30;;;;;;;-143.84;34.18;44919.59;5089867;28;20447;-61
2023/09/19 09:28:01;;;;;;;0.80;0.30;;;;;;;-143.84;34.83;44906.25;5089697;28;21339;-61
2023/09/19 09:30:36;;;;;;;0.80;0.30;;;;;;;-143.84;35.39;44950.06;5091331;28;20544;-61
2023/09/19 09:33:12;;;;;;;0.80;0.40;;;;;;;-143.84;35.58;44955.75;5092213;28;20447;-61
2023/09/19 09:35:48;;;;;;;0.80;0.30;;;;;;;-143.84;35.16;44917.69;5092275;28;20580;-61
2023/09/19 09:38:16;;;;;;;0.80;0.30;;;;;;;-143.84;35.19;44946.25;5089420;28;20522;-61
2023/09/19 09:40:54;;;;;;;0.80;0.30;;;;;;;-143.84;35.13;44919.59;5089333;28;20512;-61
2023/09/19 09:43:31;;;;;;;0.80;0.30;;;;;;;-143.84;36.05;44923.41;5084449;28;20454;-61
2023/09/19 09:49:18;;;;;;;0.80;0.40;;;;;;;-143.84;35.22;44938.63;5092020;28;20474;-61
2023/09/19 09:51:57;;;;;;;0.80;0.30;;;;;;;-143.84;35.31;44948.16;5091980;28;20444;-61
2023/09/19 09:54:27;;;;;;;0.80;0.40;;;;;;;-143.84;35.73;44938.63;5092214;28;20447;-61
2023/09/19 09:56:58;;;;;;;0.80;0.30;;;;;;;-143.84;35.24;44931.00;5088469;28;20474;-61
2023/09/19 09:59:53;;;;;;;0.80;0.30;;;;;;;-143.84;35.33;44944.34;5091526;28;20487;-61
2023/09/19 10:02:28;;;;;;;0.80;0.30;;;;;;;-143.84;35.90;44942.44;5091339;28;20440;-61
2023/09/19 10:05:14;;;;;;;0.80;0.30;;;;;;;-143.84;36.91;44932.91;5088496;28;20450;-61
2023/09/19 10:07:49;;;;;;;0.80;0.30;;;;;;;-143.84;37.34;44910.06;5090180;28;20475;-61
2023/09/19 10:10:37;;;;;;;0.80;0.33;;;;;;;-143.84;37.37;44953.88;5090882;28;21009;-61
2023/09/19 10:13:07;;;;;;;0.80;0.30;;;;;;;-143.84;37.53;44957.66;5089191;28;21113;-61
2023/09/19 10:15:39;;;;;;;0.80;0.40;;;;;;;-143.84;38.41;44963.38;5091277;28;20481;-61
2023/09/19 10:18:08;;;;;;;0.80;0.30;;;;;;;-143.84;38.41;44911.97;5091379;28;20484;-60
2023/09/19 10:20:38;;;;;;;0.80;0.30;;;;;;;-143.84;38.36;44934.81;5102483;28;20504;-60
2023/09/19 10:23:12;;;;;;;0.80;0.40;;;;;;;-143.84;39.23;44959.56;5089081;28;20447;-60
2023/09/19 10:25:41;;;;;;;0.80;0.40;;;;;;;-143.84;39.76;44951.97;5089369;28;20443;-60
2023/09/19 10:28:11;;;;;;;0.80;0.30;;;;;;;-143.84;39.87;44980.53;5090097;28;20475;-61
2023/09/19 10:30:44;;;;;;;0.80;0.30;;;;;;;-143.84;39.49;44976.72;5088494;28;20516;-59
2023/09/19 10:33:12;;;;;;;0.80;0.40;;;;;;;-143.84;40.21;44971.00;5099643;28;20458;-59
2023/09/19 10:35:41;;;;;;;0.80;0.30;;;;;;;-143.84;40.36;44931.00;5098744;28;20521;-60
2023/09/19 10:38:10;;;;;;;0.80;0.30;;;;;;;-143.84;40.09;44959.56;5088643;28;20455;-60
2023/09/19 10:40:42;;;;;;;0.80;0.30;;;;;;;-143.84;40.56;44967.19;5088491;28;20447;-60
2023/09/19 10:43:13;;;;;;;0.80;0.30;;;;;;;-143.84;41.18;44980.53;5088628;28;20523;-60
2023/09/19 10:45:44;;;;;;;0.80;0.30;;;;;;;-143.84;41.40;44984.31;5090490;28;20439;-59
2023/09/19 10:48:12;;;;;;;0.80;0.30;;;;;;;-143.84;41.77;44988.13;5090352;28;20483;-59
2023/09/19 10:50:46;;;;;;;0.80;0.40;;;;;;;-143.84;41.62;44965.28;5091059;28;20581;-59
2023/09/19 10:53:15;;;;;;;0.80;0.40;;;;;;;-143.84;42.29;44982.41;5093967;28;20443;-59
2023/09/19 10:55:51;;;;;;;0.80;0.30;;;;;;;-143.84;42.60;44974.81;5094026;28;20447;-59
2023/09/19 10:58:28;;;;;;;0.90;0.50;;;;;;;-143.84;43.29;45009.09;5089235;28;20483;-59
2023/09/19 11:01:05;;;;;;;0.80;0.40;;;;;;;-143.84;43.48;44965.28;5090924;28;20478;-59
2023/09/19 11:03:33;;;;;;;0.80;0.30;;;;;;;-143.84;42.71;44972.91;5090383;28;20455;-60
2023/09/19 11:06:16;;;;;;;0.80;0.30;;;;;;;-143.84;42.76;44963.38;5092226;28;20482;-60
2023/09/19 11:09:07;;;;;;;0.80;0.30;;;;;;;-143.84;42.91;44936.72;5094912;28;20478;-60
2023/09/19 11:11:50;;;;;;;0.80;0.30;;;;;;;-143.84;43.38;44948.16;5090626;28;20873;-60
2023/09/19 11:14:44;;;;;;;0.80;0.30;;;;;;;-143.84;43.54;44951.97;5090563;28;20509;-60
2023/09/19 11:17:46;;;;;;;0.80;0.40;;;;;;;-143.84;44.36;44967.19;5098391;28;20470;-60
2023/09/19 11:20:43;;;;;;;0.80;0.30;;;;;;;-143.84;44.27;44953.88;5095499;28;20455;-60
2023/09/19 11:23:22;;;;;;;0.80;0.40;;;;;;;-143.84;45.27;44974.81;5090154;28;20507;-60
2023/09/19 11:25:52;;;;;;;0.80;0.30;;;;;;;-143.84;45.16;44993.84;5095561;28;20826;-60
2023/09/19 11:28:36;;;;;;;0.80;0.30;;;;;;;-143.84;44.78;44986.22;5093683;28;20474;-60
2023/09/19 11:31:53;;;;;;;0.80;0.30;;;;;;;-143.84;46.42;44986.22;5087529;28;20456;-61
2023/09/19 11:34:41;;;;;;;0.80;0.30;;;;;;;-143.84;44.84;44972.91;5089413;28;20447;-59